This is the latest recevied weather packets stored in our database for station/object JE7UPL-13. If no packets are shown the sender has not sent any weather packets the latest 10 day(s).
| Time | Temp. | Humidity | Pressure | Rain* | Wind** | Luminosity | Snow |
|---|---|---|---|---|---|---|---|
| 1777750206 | 12.78° C | 55% | 1006.2 hPa | 0 mm | - | - | - |
| 1777748405 | 13.33° C | 54% | 1005.9 hPa | 0 mm | - | - | - |
| 1777742105 | 12.78° C | 48% | 1005.8 hPa | 0 mm | - | - | - |
| 1777739405 | 12.78° C | 36% | 1005.4 hPa | 0 mm | - | - | - |
| 1777737605 | 12.22° C | 34% | 1005.4 hPa | 0 mm | - | - | - |
| 1777735805 | 9.44° C | 51% | 1005.4 hPa | 0 mm | - | - | - |
| 1777734904 | 9.44° C | 51% | 1005.6 hPa | 0 mm | - | - | - |
| 1777734009 | 8.89° C | 53% | 1006 hPa | 0 mm | - | - | - |
| 1777733105 | 8.89° C | 52% | 1005.7 hPa | 0 mm | - | - | - |
| 1777732205 | 8.89° C | 51% | 1005.6 hPa | 0 mm | - | - | - |
| 1777731305 | 10° C | 44% | 1005.7 hPa | 0 mm | - | - | - |
| 1777728605 | 11.11° C | 34% | 1005.9 hPa | 0 mm | - | - | - |
| 1777727704 | 11.67° C | 31% | 1005.6 hPa | 0 mm | - | - | - |
| 1777726805 | 11.67° C | 30% | 1005.7 hPa | 0 mm | - | - | - |
| 1777725005 | 12.22° C | 29% | 1005.3 hPa | 0 mm | - | - | - |
| 1777724105 | 11.67° C | 35% | 1005.5 hPa | 0 mm | - | - | - |
| 1777721405 | 12.22° C | 34% | 1005.3 hPa | 0 mm | - | - | - |
| 1777720505 | 11.67° C | 39% | 1005 hPa | 0 mm | - | - | - |
| 1777719606 | 11.67° C | 40% | 1004.8 hPa | 0 mm | - | - | - |
| 1777718705 | 13.33° C | 34% | 1004.6 hPa | 0 mm | - | - | - |
| 1777717805 | 13.33° C | 34% | 1004.5 hPa | 0 mm | - | - | - |
| 1777716905 | 13.33° C | 33% | 1004.3 hPa | 0 mm | - | - | - |
| 1777716005 | 13.33° C | 34% | 1004.4 hPa | 0 mm | - | - | - |
| 1777715105 | 13.33° C | 35% | 1004.2 hPa | 0 mm | - | - | - |
| 1777714205 | 13.89° C | 34% | 1003.9 hPa | 0 mm | - | - | - |
* Rain latest hour (hover to see other rain measurements)
** Current wind speed in m/s (hover to see current wind gust speed)